sensor_id;sensor_type;location;lat;lon;timestamp;P1;durP1;ratioP1;P2;durP2;ratioP2
37715;SDS011;23562;50.540;12.504;2023-04-03T00:02:01;7.57;;;3.30;;
37715;SDS011;23562;50.540;12.504;2023-04-03T00:04:26;8.45;;;3.42;;
37715;SDS011;23562;50.540;12.504;2023-04-03T00:06:51;7.53;;;3.00;;
37715;SDS011;23562;50.540;12.504;2023-04-03T00:09:17;10.88;;;3.30;;
37715;SDS011;23562;50.540;12.504;2023-04-03T00:11:42;9.95;;;3.45;;
37715;SDS011;23562;50.540;12.504;2023-04-03T00:14:07;10.70;;;3.90;;
37715;SDS011;23562;50.540;12.504;2023-04-03T00:16:32;9.82;;;3.50;;
37715;SDS011;23562;50.540;12.504;2023-04-03T00:18:58;12.55;;;3.38;;
37715;SDS011;23562;50.540;12.504;2023-04-03T00:21:23;8.45;;;3.13;;
37715;SDS011;23562;50.540;12.504;2023-04-03T00:23:48;10.70;;;3.92;;
37715;SDS011;23562;50.540;12.504;2023-04-03T00:28:59;9.40;;;3.70;;
37715;SDS011;23562;50.540;12.504;2023-04-03T00:31:24;8.57;;;3.38;;
37715;SDS011;23562;50.540;12.504;2023-04-03T00:33:51;11.27;;;4.80;;
37715;SDS011;23562;50.540;12.504;2023-04-03T00:36:16;15.10;;;4.70;;
37715;SDS011;23562;50.540;12.504;2023-04-03T00:38:45;9.95;;;3.95;;
37715;SDS011;23562;50.540;12.504;2023-04-03T00:43:57;11.45;;;3.97;;
37715;SDS011;23562;50.540;12.504;2023-04-03T00:46:23;7.72;;;3.10;;
37715;SDS011;23562;50.540;12.504;2023-04-03T00:49:00;7.97;;;3.25;;
37715;SDS011;23562;50.540;12.504;2023-04-03T00:51:29;9.25;;;3.70;;
37715;SDS011;23562;50.540;12.504;2023-04-03T00:53:57;10.07;;;4.18;;
37715;SDS011;23562;50.540;12.504;2023-04-03T00:58:53;8.30;;;3.85;;
37715;SDS011;23562;50.540;12.504;2023-04-03T01:01:25;11.88;;;3.70;;
37715;SDS011;23562;50.540;12.504;2023-04-03T01:03:52;13.38;;;4.20;;
37715;SDS011;23562;50.540;12.504;2023-04-03T01:06:25;14.35;;;4.00;;
37715;SDS011;23562;50.540;12.504;2023-04-03T01:08:53;12.85;;;5.35;;
37715;SDS011;23562;50.540;12.504;2023-04-03T01:11:20;15.60;;;5.95;;
37715;SDS011;23562;50.540;12.504;2023-04-03T01:13:46;12.98;;;5.25;;
37715;SDS011;23562;50.540;12.504;2023-04-03T01:16:11;12.55;;;5.38;;
37715;SDS011;23562;50.540;12.504;2023-04-03T01:18:37;17.25;;;4.95;;
37715;SDS011;23562;50.540;12.504;2023-04-03T01:21:23;16.75;;;5.50;;
37715;SDS011;23562;50.540;12.504;2023-04-03T01:24:11;9.02;;;3.35;;
37715;SDS011;23562;50.540;12.504;2023-04-03T01:26:48;11.68;;;4.30;;
37715;SDS011;23562;50.540;12.504;2023-04-03T01:29:15;12.02;;;4.63;;
37715;SDS011;23562;50.540;12.504;2023-04-03T01:31:51;12.98;;;5.20;;
37715;SDS011;23562;50.540;12.504;2023-04-03T01:34:18;11.38;;;4.95;;
37715;SDS011;23562;50.540;12.504;2023-04-03T01:36:43;11.60;;;4.00;;
37715;SDS011;23562;50.540;12.504;2023-04-03T01:39:09;11.25;;;3.90;;
37715;SDS011;23562;50.540;12.504;2023-04-03T01:41:34;11.05;;;3.53;;
37715;SDS011;23562;50.540;12.504;2023-04-03T01:44:00;12.55;;;4.05;;
37715;SDS011;23562;50.540;12.504;2023-04-03T01:46:25;11.38;;;3.38;;
37715;SDS011;23562;50.540;12.504;2023-04-03T01:48:50;12.50;;;4.05;;
37715;SDS011;23562;50.540;12.504;2023-04-03T01:51:16;7.03;;;3.50;;
37715;SDS011;23562;50.540;12.504;2023-04-03T01:53:41;8.50;;;3.40;;
37715;SDS011;23562;50.540;12.504;2023-04-03T01:56:07;8.48;;;3.20;;
37715;SDS011;23562;50.540;12.504;2023-04-03T01:58:32;9.15;;;3.17;;
37715;SDS011;23562;50.540;12.504;2023-04-03T02:00:58;6.20;;;3.25;;
37715;SDS011;23562;50.540;12.504;2023-04-03T02:03:23;11.10;;;3.08;;
37715;SDS011;23562;50.540;12.504;2023-04-03T02:05:49;13.02;;;3.50;;
37715;SDS011;23562;50.540;12.504;2023-04-03T02:08:14;9.65;;;3.13;;
37715;SDS011;23562;50.540;12.504;2023-04-03T02:10:40;8.93;;;2.90;;
37715;SDS011;23562;50.540;12.504;2023-04-03T02:13:05;9.07;;;3.50;;
37715;SDS011;23562;50.540;12.504;2023-04-03T02:15:30;8.98;;;3.17;;
37715;SDS011;23562;50.540;12.504;2023-04-03T02:17:56;8.98;;;2.95;;
37715;SDS011;23562;50.540;12.504;2023-04-03T02:20:21;7.43;;;2.72;;
37715;SDS011;23562;50.540;12.504;2023-04-03T02:22:46;9.65;;;2.92;;
37715;SDS011;23562;50.540;12.504;2023-04-03T02:25:12;7.97;;;2.88;;
37715;SDS011;23562;50.540;12.504;2023-04-03T02:27:37;10.57;;;2.70;;
37715;SDS011;23562;50.540;12.504;2023-04-03T02:30:03;6.03;;;2.50;;
37715;SDS011;23562;50.540;12.504;2023-04-03T02:32:29;8.45;;;2.20;;
37715;SDS011;23562;50.540;12.504;2023-04-03T02:34:54;8.32;;;2.20;;
37715;SDS011;23562;50.540;12.504;2023-04-03T02:37:20;7.90;;;2.80;;
37715;SDS011;23562;50.540;12.504;2023-04-03T02:39:46;7.80;;;2.25;;
37715;SDS011;23562;50.540;12.504;2023-04-03T02:42:11;5.47;;;2.17;;
37715;SDS011;23562;50.540;12.504;2023-04-03T02:44:36;12.02;;;2.58;;
37715;SDS011;23562;50.540;12.504;2023-04-03T02:47:01;6.93;;;2.63;;
37715;SDS011;23562;50.540;12.504;2023-04-03T02:49:27;11.32;;;2.60;;
37715;SDS011;23562;50.540;12.504;2023-04-03T02:51:52;12.65;;;3.28;;
37715;SDS011;23562;50.540;12.504;2023-04-03T02:54:18;10.35;;;4.00;;
37715;SDS011;23562;50.540;12.504;2023-04-03T02:56:43;13.55;;;4.28;;
37715;SDS011;23562;50.540;12.504;2023-04-03T02:59:08;11.35;;;3.85;;
37715;SDS011;23562;50.540;12.504;2023-04-03T03:01:33;14.88;;;3.75;;
37715;SDS011;23562;50.540;12.504;2023-04-03T03:03:59;18.65;;;4.50;;
37715;SDS011;23562;50.540;12.504;2023-04-03T03:06:25;10.52;;;4.30;;
37715;SDS011;23562;50.540;12.504;2023-04-03T03:08:51;11.20;;;4.40;;
37715;SDS011;23562;50.540;12.504;2023-04-03T03:11:16;14.15;;;4.75;;
37715;SDS011;23562;50.540;12.504;2023-04-03T03:13:41;11.77;;;4.90;;
37715;SDS011;23562;50.540;12.504;2023-04-03T03:16:07;12.48;;;4.10;;
37715;SDS011;23562;50.540;12.504;2023-04-03T03:18:32;13.73;;;4.90;;
37715;SDS011;23562;50.540;12.504;2023-04-03T03:20:59;13.00;;;4.53;;
37715;SDS011;23562;50.540;12.504;2023-04-03T03:23:25;9.93;;;4.35;;
37715;SDS011;23562;50.540;12.504;2023-04-03T03:26:00;12.25;;;4.10;;
37715;SDS011;23562;50.540;12.504;2023-04-03T03:28:28;12.20;;;4.25;;
37715;SDS011;23562;50.540;12.504;2023-04-03T03:30:53;14.00;;;4.28;;
37715;SDS011;23562;50.540;12.504;2023-04-03T03:33:19;16.55;;;5.10;;
37715;SDS011;23562;50.540;12.504;2023-04-03T03:35:44;16.25;;;4.72;;
37715;SDS011;23562;50.540;12.504;2023-04-03T03:38:10;9.63;;;4.03;;
37715;SDS011;23562;50.540;12.504;2023-04-03T03:40:35;11.55;;;4.20;;
37715;SDS011;23562;50.540;12.504;2023-04-03T03:43:01;12.43;;;3.80;;
37715;SDS011;23562;50.540;12.504;2023-04-03T03:45:26;5.88;;;3.35;;
37715;SDS011;23562;50.540;12.504;2023-04-03T03:47:51;11.38;;;3.65;;
37715;SDS011;23562;50.540;12.504;2023-04-03T03:50:17;12.32;;;4.20;;
37715;SDS011;23562;50.540;12.504;2023-04-03T03:52:42;7.60;;;3.40;;
37715;SDS011;23562;50.540;12.504;2023-04-03T03:58:34;12.07;;;3.65;;
37715;SDS011;23562;50.540;12.504;2023-04-03T04:01:00;8.73;;;4.22;;
37715;SDS011;23562;50.540;12.504;2023-04-03T04:03:27;9.63;;;4.47;;
37715;SDS011;23562;50.540;12.504;2023-04-03T04:05:52;8.07;;;4.00;;
37715;SDS011;23562;50.540;12.504;2023-04-03T04:08:17;11.60;;;4.22;;
37715;SDS011;23562;50.540;12.504;2023-04-03T04:10:42;14.90;;;6.07;;
37715;SDS011;23562;50.540;12.504;2023-04-03T04:13:07;10.13;;;5.18;;
37715;SDS011;23562;50.540;12.504;2023-04-03T04:15:33;9.65;;;3.92;;
37715;SDS011;23562;50.540;12.504;2023-04-03T04:17:58;11.23;;;3.83;;
37715;SDS011;23562;50.540;12.504;2023-04-03T04:20:23;10.20;;;3.97;;
37715;SDS011;23562;50.540;12.504;2023-04-03T04:22:49;8.27;;;3.63;;
37715;SDS011;23562;50.540;12.504;2023-04-03T04:25:14;11.73;;;4.35;;
37715;SDS011;23562;50.540;12.504;2023-04-03T04:27:40;16.65;;;4.50;;
37715;SDS011;23562;50.540;12.504;2023-04-03T04:30:05;8.10;;;4.78;;
37715;SDS011;23562;50.540;12.504;2023-04-03T04:32:31;12.95;;;4.88;;
37715;SDS011;23562;50.540;12.504;2023-04-03T04:34:57;8.55;;;4.57;;
37715;SDS011;23562;50.540;12.504;2023-04-03T04:37:22;16.25;;;5.13;;
37715;SDS011;23562;50.540;12.504;2023-04-03T04:39:47;15.73;;;5.30;;
37715;SDS011;23562;50.540;12.504;2023-04-03T04:42:12;17.23;;;4.50;;
37715;SDS011;23562;50.540;12.504;2023-04-03T04:44:38;11.23;;;4.90;;
37715;SDS011;23562;50.540;12.504;2023-04-03T04:47:04;13.68;;;5.28;;
37715;SDS011;23562;50.540;12.504;2023-04-03T04:49:29;11.98;;;5.30;;
37715;SDS011;23562;50.540;12.504;2023-04-03T04:51:55;9.98;;;4.90;;
37715;SDS011;23562;50.540;12.504;2023-04-03T04:54:20;13.77;;;5.72;;
37715;SDS011;23562;50.540;12.504;2023-04-03T04:56:45;12.73;;;5.43;;
37715;SDS011;23562;50.540;12.504;2023-04-03T04:59:10;9.23;;;5.22;;
37715;SDS011;23562;50.540;12.504;2023-04-03T05:01:36;16.40;;;6.25;;
37715;SDS011;23562;50.540;12.504;2023-04-03T05:04:01;11.63;;;5.25;;
37715;SDS011;23562;50.540;12.504;2023-04-03T05:06:26;14.88;;;5.68;;
37715;SDS011;23562;50.540;12.504;2023-04-03T05:08:51;15.02;;;6.75;;
37715;SDS011;23562;50.540;12.504;2023-04-03T05:11:17;15.82;;;7.32;;
37715;SDS011;23562;50.540;12.504;2023-04-03T05:13:42;20.42;;;7.50;;
37715;SDS011;23562;50.540;12.504;2023-04-03T05:16:07;13.00;;;7.03;;
37715;SDS011;23562;50.540;12.504;2023-04-03T05:18:32;17.38;;;7.65;;
37715;SDS011;23562;50.540;12.504;2023-04-03T05:20:58;13.60;;;7.65;;
37715;SDS011;23562;50.540;12.504;2023-04-03T05:23:23;13.65;;;7.78;;
37715;SDS011;23562;50.540;12.504;2023-04-03T05:25:49;14.75;;;7.07;;
37715;SDS011;23562;50.540;12.504;2023-04-03T05:28:14;19.73;;;7.88;;
37715;SDS011;23562;50.540;12.504;2023-04-03T05:30:40;14.50;;;6.95;;
37715;SDS011;23562;50.540;12.504;2023-04-03T05:33:05;14.90;;;7.63;;
37715;SDS011;23562;50.540;12.504;2023-04-03T05:35:30;13.25;;;7.35;;
37715;SDS011;23562;50.540;12.504;2023-04-03T05:37:56;11.90;;;7.03;;
37715;SDS011;23562;50.540;12.504;2023-04-03T05:40:21;17.95;;;7.35;;
37715;SDS011;23562;50.540;12.504;2023-04-03T05:42:47;18.70;;;8.25;;
37715;SDS011;23562;50.540;12.504;2023-04-03T05:45:12;15.27;;;8.05;;
37715;SDS011;23562;50.540;12.504;2023-04-03T05:47:37;21.85;;;8.18;;
37715;SDS011;23562;50.540;12.504;2023-04-03T05:50:03;22.70;;;8.73;;
37715;SDS011;23562;50.540;12.504;2023-04-03T05:52:30;17.90;;;7.45;;
37715;SDS011;23562;50.540;12.504;2023-04-03T05:54:57;16.80;;;7.78;;
37715;SDS011;23562;50.540;12.504;2023-04-03T05:57:23;16.50;;;7.57;;
37715;SDS011;23562;50.540;12.504;2023-04-03T05:59:49;21.95;;;8.70;;
37715;SDS011;23562;50.540;12.504;2023-04-03T06:02:16;20.08;;;8.35;;
37715;SDS011;23562;50.540;12.504;2023-04-03T06:07:51;15.50;;;8.38;;
37715;SDS011;23562;50.540;12.504;2023-04-03T06:10:16;22.05;;;10.45;;
37715;SDS011;23562;50.540;12.504;2023-04-03T06:12:42;28.13;;;12.25;;
37715;SDS011;23562;50.540;12.504;2023-04-03T06:15:07;25.35;;;11.68;;
37715;SDS011;23562;50.540;12.504;2023-04-03T06:17:34;25.75;;;12.15;;
37715;SDS011;23562;50.540;12.504;2023-04-03T06:20:00;27.02;;;11.93;;
37715;SDS011;23562;50.540;12.504;2023-04-03T06:22:25;23.17;;;10.90;;
37715;SDS011;23562;50.540;12.504;2023-04-03T06:24:51;21.05;;;10.25;;
37715;SDS011;23562;50.540;12.504;2023-04-03T06:27:16;19.08;;;10.30;;
37715;SDS011;23562;50.540;12.504;2023-04-03T06:29:41;18.65;;;9.68;;
37715;SDS011;23562;50.540;12.504;2023-04-03T06:32:10;17.20;;;9.35;;
37715;SDS011;23562;50.540;12.504;2023-04-03T06:34:35;21.63;;;11.27;;
37715;SDS011;23562;50.540;12.504;2023-04-03T06:37:00;17.75;;;9.55;;
37715;SDS011;23562;50.540;12.504;2023-04-03T06:39:25;18.35;;;8.55;;
37715;SDS011;23562;50.540;12.504;2023-04-03T06:41:52;16.55;;;7.72;;
37715;SDS011;23562;50.540;12.504;2023-04-03T06:44:17;15.55;;;7.80;;
37715;SDS011;23562;50.540;12.504;2023-04-03T06:46:43;14.85;;;6.93;;
37715;SDS011;23562;50.540;12.504;2023-04-03T06:49:08;15.30;;;7.40;;
37715;SDS011;23562;50.540;12.504;2023-04-03T06:51:34;17.33;;;7.55;;
37715;SDS011;23562;50.540;12.504;2023-04-03T06:54:02;12.73;;;6.97;;
37715;SDS011;23562;50.540;12.504;2023-04-03T06:56:28;16.92;;;6.97;;
37715;SDS011;23562;50.540;12.504;2023-04-03T06:58:54;14.95;;;7.05;;
37715;SDS011;23562;50.540;12.504;2023-04-03T07:01:22;12.65;;;6.75;;
37715;SDS011;23562;50.540;12.504;2023-04-03T07:03:49;13.38;;;6.03;;
37715;SDS011;23562;50.540;12.504;2023-04-03T07:06:15;10.48;;;6.03;;
37715;SDS011;23562;50.540;12.504;2023-04-03T07:08:41;13.35;;;6.15;;
37715;SDS011;23562;50.540;12.504;2023-04-03T07:11:07;10.82;;;5.68;;
37715;SDS011;23562;50.540;12.504;2023-04-03T07:16:44;14.32;;;6.22;;
37715;SDS011;23562;50.540;12.504;2023-04-03T07:19:09;10.98;;;6.07;;
37715;SDS011;23562;50.540;12.504;2023-04-03T07:21:34;13.00;;;6.72;;
37715;SDS011;23562;50.540;12.504;2023-04-03T07:24:00;12.73;;;7.30;;
37715;SDS011;23562;50.540;12.504;2023-04-03T07:26:25;15.27;;;7.25;;
37715;SDS011;23562;50.540;12.504;2023-04-03T07:28:51;17.70;;;6.85;;
37715;SDS011;23562;50.540;12.504;2023-04-03T07:31:16;9.30;;;5.75;;
37715;SDS011;23562;50.540;12.504;2023-04-03T07:33:43;11.48;;;5.38;;
37715;SDS011;23562;50.540;12.504;2023-04-03T07:36:10;9.68;;;5.35;;
37715;SDS011;23562;50.540;12.504;2023-04-03T07:38:38;13.25;;;5.65;;
37715;SDS011;23562;50.540;12.504;2023-04-03T07:41:04;11.00;;;5.70;;
37715;SDS011;23562;50.540;12.504;2023-04-03T07:43:30;9.95;;;5.50;;
37715;SDS011;23562;50.540;12.504;2023-04-03T07:45:55;17.00;;;6.30;;
37715;SDS011;23562;50.540;12.504;2023-04-03T07:48:22;10.88;;;5.60;;
37715;SDS011;23562;50.540;12.504;2023-04-03T07:50:48;12.85;;;5.40;;
37715;SDS011;23562;50.540;12.504;2023-04-03T07:53:14;10.45;;;5.63;;
37715;SDS011;23562;50.540;12.504;2023-04-03T07:55:39;12.90;;;5.63;;
37715;SDS011;23562;50.540;12.504;2023-04-03T07:58:09;11.02;;;5.18;;
37715;SDS011;23562;50.540;12.504;2023-04-03T08:00:38;16.33;;;8.45;;
37715;SDS011;23562;50.540;12.504;2023-04-03T08:03:04;9.77;;;6.25;;
37715;SDS011;23562;50.540;12.504;2023-04-03T08:05:29;13.80;;;6.47;;
37715;SDS011;23562;50.540;12.504;2023-04-03T08:07:55;10.00;;;5.78;;
37715;SDS011;23562;50.540;12.504;2023-04-03T08:10:20;11.77;;;6.18;;
37715;SDS011;23562;50.540;12.504;2023-04-03T08:12:46;10.70;;;6.10;;
37715;SDS011;23562;50.540;12.504;2023-04-03T08:15:12;10.23;;;5.55;;
37715;SDS011;23562;50.540;12.504;2023-04-03T08:17:38;11.38;;;5.30;;
37715;SDS011;23562;50.540;12.504;2023-04-03T08:20:04;11.30;;;4.82;;
37715;SDS011;23562;50.540;12.504;2023-04-03T08:22:31;10.70;;;5.22;;
37715;SDS011;23562;50.540;12.504;2023-04-03T08:24:57;17.05;;;10.43;;
37715;SDS011;23562;50.540;12.504;2023-04-03T08:27:22;12.32;;;6.50;;
37715;SDS011;23562;50.540;12.504;2023-04-03T08:29:47;15.23;;;7.32;;
37715;SDS011;23562;50.540;12.504;2023-04-03T08:32:13;25.60;;;13.63;;
37715;SDS011;23562;50.540;12.504;2023-04-03T08:34:38;35.20;;;20.80;;
37715;SDS011;23562;50.540;12.504;2023-04-03T08:37:04;17.50;;;6.55;;
37715;SDS011;23562;50.540;12.504;2023-04-03T08:39:30;25.52;;;17.83;;
37715;SDS011;23562;50.540;12.504;2023-04-03T08:41:57;18.50;;;11.40;;
37715;SDS011;23562;50.540;12.504;2023-04-03T08:47:29;10.35;;;4.95;;
37715;SDS011;23562;50.540;12.504;2023-04-03T08:50:18;12.05;;;5.57;;
37715;SDS011;23562;50.540;12.504;2023-04-03T08:52:47;11.93;;;7.65;;
37715;SDS011;23562;50.540;12.504;2023-04-03T08:58:00;5.22;;;4.18;;
37715;SDS011;23562;50.540;12.504;2023-04-03T09:00:26;7.38;;;3.72;;
37715;SDS011;23562;50.540;12.504;2023-04-03T09:02:57;6.00;;;3.33;;
37715;SDS011;23562;50.540;12.504;2023-04-03T09:08:12;8.02;;;3.30;;
37715;SDS011;23562;50.540;12.504;2023-04-03T09:10:45;6.57;;;3.50;;
37715;SDS011;23562;50.540;12.504;2023-04-03T09:13:22;11.88;;;4.40;;
37715;SDS011;23562;50.540;12.504;2023-04-03T09:15:55;9.20;;;3.97;;
37715;SDS011;23562;50.540;12.504;2023-04-03T09:18:23;8.52;;;3.78;;
37715;SDS011;23562;50.540;12.504;2023-04-03T09:23:31;10.88;;;3.80;;
37715;SDS011;23562;50.540;12.504;2023-04-03T09:26:24;7.80;;;3.30;;
37715;SDS011;23562;50.540;12.504;2023-04-03T09:29:02;6.97;;;3.17;;
37715;SDS011;23562;50.540;12.504;2023-04-03T09:34:06;7.30;;;3.40;;
37715;SDS011;23562;50.540;12.504;2023-04-03T09:36:45;8.07;;;3.30;;
37715;SDS011;23562;50.540;12.504;2023-04-03T09:39:22;5.70;;;2.63;;
37715;SDS011;23562;50.540;12.504;2023-04-03T09:42:05;5.75;;;2.90;;
37715;SDS011;23562;50.540;12.504;2023-04-03T09:44:42;8.52;;;3.05;;
37715;SDS011;23562;50.540;12.504;2023-04-03T09:47:17;8.40;;;2.55;;
37715;SDS011;23562;50.540;12.504;2023-04-03T09:49:44;5.55;;;2.80;;
37715;SDS011;23562;50.540;12.504;2023-04-03T09:55:05;8.07;;;3.30;;
37715;SDS011;23562;50.540;12.504;2023-04-03T09:57:52;8.88;;;3.40;;
37715;SDS011;23562;50.540;12.504;2023-04-03T10:00:23;6.93;;;3.53;;
37715;SDS011;23562;50.540;12.504;2023-04-03T10:02:55;7.30;;;2.70;;
37715;SDS011;23562;50.540;12.504;2023-04-03T10:08:10;7.45;;;3.03;;
37715;SDS011;23562;50.540;12.504;2023-04-03T10:10:36;7.40;;;3.37;;
37715;SDS011;23562;50.540;12.504;2023-04-03T10:13:06;6.50;;;3.38;;
37715;SDS011;23562;50.540;12.504;2023-04-03T10:15:43;10.18;;;3.53;;
37715;SDS011;23562;50.540;12.504;2023-04-03T10:21:10;8.88;;;5.35;;
37715;SDS011;23562;50.540;12.504;2023-04-03T10:23:49;8.18;;;4.40;;
37715;SDS011;23562;50.540;12.504;2023-04-03T10:26:41;5.70;;;4.00;;
37715;SDS011;23562;50.540;12.504;2023-04-03T10:29:39;5.88;;;2.90;;
37715;SDS011;23562;50.540;12.504;2023-04-03T10:35:13;6.85;;;3.20;;
37715;SDS011;23562;50.540;12.504;2023-04-03T10:43:33;5.40;;;3.15;;
37715;SDS011;23562;50.540;12.504;2023-04-03T10:48:54;8.15;;;3.13;;
37715;SDS011;23562;50.540;12.504;2023-04-03T10:54:20;5.28;;;3.65;;
37715;SDS011;23562;50.540;12.504;2023-04-03T10:56:54;13.30;;;5.25;;
37715;SDS011;23562;50.540;12.504;2023-04-03T11:02:42;4.60;;;2.60;;
37715;SDS011;23562;50.540;12.504;2023-04-03T11:05:18;4.28;;;2.58;;
37715;SDS011;23562;50.540;12.504;2023-04-03T11:07:52;6.13;;;2.78;;
37715;SDS011;23562;50.540;12.504;2023-04-03T11:10:42;6.80;;;2.70;;
37715;SDS011;23562;50.540;12.504;2023-04-03T11:13:14;4.60;;;2.60;;
37715;SDS011;23562;50.540;12.504;2023-04-03T11:15:44;9.90;;;4.15;;
37715;SDS011;23562;50.540;12.504;2023-04-03T11:18:21;9.68;;;3.55;;
37715;SDS011;23562;50.540;12.504;2023-04-03T11:21:07;11.18;;;4.05;;
37715;SDS011;23562;50.540;12.504;2023-04-03T11:23:39;11.50;;;4.68;;
37715;SDS011;23562;50.540;12.504;2023-04-03T11:26:16;14.48;;;5.75;;
37715;SDS011;23562;50.540;12.504;2023-04-03T11:28:42;11.75;;;4.78;;
37715;SDS011;23562;50.540;12.504;2023-04-03T11:39:56;4.43;;;1.95;;
37715;SDS011;23562;50.540;12.504;2023-04-03T11:43:02;7.68;;;2.28;;
37715;SDS011;23562;50.540;12.504;2023-04-03T11:45:23;6.97;;;2.50;;
37715;SDS011;23562;50.540;12.504;2023-04-03T11:47:53;4.53;;;2.05;;
37715;SDS011;23562;50.540;12.504;2023-04-03T12:05:47;5.82;;;2.30;;
37715;SDS011;23562;50.540;12.504;2023-04-03T12:16:24;6.35;;;2.35;;
37715;SDS011;23562;50.540;12.504;2023-04-03T12:32:30;7.65;;;2.53;;
37715;SDS011;23562;50.540;12.504;2023-04-03T12:43:20;5.85;;;2.60;;
37715;SDS011;23562;50.540;12.504;2023-04-03T12:48:36;9.30;;;2.30;;
37715;SDS011;23562;50.540;12.504;2023-04-03T12:51:15;5.13;;;2.45;;
37715;SDS011;23562;50.540;12.504;2023-04-03T12:53:47;7.15;;;2.35;;
37715;SDS011;23562;50.540;12.504;2023-04-03T12:56:19;9.75;;;2.38;;
37715;SDS011;23562;50.540;12.504;2023-04-03T12:58:45;6.97;;;2.60;;
37715;SDS011;23562;50.540;12.504;2023-04-03T13:01:15;3.10;;;1.75;;
37715;SDS011;23562;50.540;12.504;2023-04-03T13:03:44;5.22;;;1.67;;
37715;SDS011;23562;50.540;12.504;2023-04-03T13:06:15;7.60;;;1.88;;
37715;SDS011;23562;50.540;12.504;2023-04-03T13:08:51;5.75;;;2.33;;
37715;SDS011;23562;50.540;12.504;2023-04-03T13:11:17;5.05;;;2.25;;
37715;SDS011;23562;50.540;12.504;2023-04-03T13:13:55;6.45;;;1.95;;
37715;SDS011;23562;50.540;12.504;2023-04-03T13:16:22;4.90;;;2.22;;
37715;SDS011;23562;50.540;12.504;2023-04-03T13:18:51;5.82;;;2.08;;
37715;SDS011;23562;50.540;12.504;2023-04-03T13:21:19;4.57;;;1.85;;
37715;SDS011;23562;50.540;12.504;2023-04-03T13:23:48;6.18;;;2.10;;
37715;SDS011;23562;50.540;12.504;2023-04-03T13:26:18;3.17;;;1.88;;
37715;SDS011;23562;50.540;12.504;2023-04-03T13:28:46;4.93;;;2.00;;
37715;SDS011;23562;50.540;12.504;2023-04-03T13:36:45;5.90;;;1.95;;
37715;SDS011;23562;50.540;12.504;2023-04-03T13:39:23;5.72;;;1.80;;
37715;SDS011;23562;50.540;12.504;2023-04-03T13:41:55;5.95;;;2.10;;
37715;SDS011;23562;50.540;12.504;2023-04-03T13:44:29;9.07;;;3.47;;
37715;SDS011;23562;50.540;12.504;2023-04-03T13:47:00;8.98;;;2.67;;
37715;SDS011;23562;50.540;12.504;2023-04-03T13:49:42;7.40;;;3.08;;
37715;SDS011;23562;50.540;12.504;2023-04-03T13:54:51;9.65;;;4.10;;
37715;SDS011;23562;50.540;12.504;2023-04-03T13:57:19;13.05;;;6.28;;
37715;SDS011;23562;50.540;12.504;2023-04-03T13:59:45;9.68;;;4.15;;
37715;SDS011;23562;50.540;12.504;2023-04-03T14:02:18;5.32;;;2.05;;
37715;SDS011;23562;50.540;12.504;2023-04-03T14:05:04;6.28;;;2.25;;
37715;SDS011;23562;50.540;12.504;2023-04-03T14:07:33;6.80;;;2.70;;
37715;SDS011;23562;50.540;12.504;2023-04-03T14:09:58;10.88;;;4.07;;
37715;SDS011;23562;50.540;12.504;2023-04-03T14:12:27;6.72;;;2.33;;
37715;SDS011;23562;50.540;12.504;2023-04-03T14:14:58;4.40;;;2.50;;
37715;SDS011;23562;50.540;12.504;2023-04-03T14:17:26;5.53;;;2.30;;
37715;SDS011;23562;50.540;12.504;2023-04-03T14:19:51;4.57;;;1.60;;
37715;SDS011;23562;50.540;12.504;2023-04-03T14:22:20;4.60;;;1.77;;
37715;SDS011;23562;50.540;12.504;2023-04-03T14:24:53;7.57;;;2.53;;
37715;SDS011;23562;50.540;12.504;2023-04-03T14:27:22;4.07;;;2.20;;
37715;SDS011;23562;50.540;12.504;2023-04-03T14:29:52;6.50;;;2.20;;
37715;SDS011;23562;50.540;12.504;2023-04-03T14:32:20;4.38;;;1.65;;
37715;SDS011;23562;50.540;12.504;2023-04-03T14:34:47;8.45;;;2.75;;
37715;SDS011;23562;50.540;12.504;2023-04-03T14:42:21;5.60;;;2.03;;
37715;SDS011;23562;50.540;12.504;2023-04-03T14:44:50;3.45;;;1.75;;
37715;SDS011;23562;50.540;12.504;2023-04-03T14:47:16;3.85;;;1.98;;
37715;SDS011;23562;50.540;12.504;2023-04-03T14:49:45;11.40;;;2.30;;
37715;SDS011;23562;50.540;12.504;2023-04-03T14:52:18;9.27;;;3.40;;
37715;SDS011;23562;50.540;12.504;2023-04-03T14:54:49;7.82;;;3.00;;
37715;SDS011;23562;50.540;12.504;2023-04-03T14:57:15;3.70;;;2.05;;
37715;SDS011;23562;50.540;12.504;2023-04-03T14:59:42;12.25;;;2.60;;
37715;SDS011;23562;50.540;12.504;2023-04-03T15:02:22;7.07;;;2.20;;
37715;SDS011;23562;50.540;12.504;2023-04-03T15:04:49;9.48;;;2.30;;
37715;SDS011;23562;50.540;12.504;2023-04-03T15:07:14;6.82;;;1.60;;
37715;SDS011;23562;50.540;12.504;2023-04-03T15:09:40;5.63;;;1.50;;
37715;SDS011;23562;50.540;12.504;2023-04-03T15:12:07;4.40;;;1.80;;
37715;SDS011;23562;50.540;12.504;2023-04-03T15:14:33;5.72;;;2.42;;
37715;SDS011;23562;50.540;12.504;2023-04-03T15:17:00;7.60;;;2.22;;
37715;SDS011;23562;50.540;12.504;2023-04-03T15:19:25;7.20;;;2.30;;
37715;SDS011;23562;50.540;12.504;2023-04-03T15:21:50;5.80;;;1.75;;
37715;SDS011;23562;50.540;12.504;2023-04-03T15:24:16;5.53;;;1.80;;
37715;SDS011;23562;50.540;12.504;2023-04-03T15:26:41;8.85;;;2.72;;
37715;SDS011;23562;50.540;12.504;2023-04-03T15:29:06;5.03;;;1.98;;
37715;SDS011;23562;50.540;12.504;2023-04-03T15:31:31;3.90;;;2.20;;
37715;SDS011;23562;50.540;12.504;2023-04-03T15:33:57;4.60;;;1.98;;
37715;SDS011;23562;50.540;12.504;2023-04-03T15:36:22;3.22;;;1.80;;
37715;SDS011;23562;50.540;12.504;2023-04-03T15:38:47;6.68;;;2.45;;
37715;SDS011;23562;50.540;12.504;2023-04-03T15:41:13;4.80;;;2.33;;
37715;SDS011;23562;50.540;12.504;2023-04-03T15:43:38;5.15;;;2.13;;
37715;SDS011;23562;50.540;12.504;2023-04-03T15:46:03;5.72;;;2.40;;
37715;SDS011;23562;50.540;12.504;2023-04-03T15:48:29;6.85;;;2.53;;
37715;SDS011;23562;50.540;12.504;2023-04-03T15:50:55;9.30;;;2.50;;
37715;SDS011;23562;50.540;12.504;2023-04-03T15:53:20;3.70;;;2.28;;
37715;SDS011;23562;50.540;12.504;2023-04-03T15:55:45;4.72;;;2.25;;
37715;SDS011;23562;50.540;12.504;2023-04-03T15:58:11;15.15;;;4.70;;
37715;SDS011;23562;50.540;12.504;2023-04-03T16:00:36;23.88;;;7.97;;
37715;SDS011;23562;50.540;12.504;2023-04-03T16:03:10;11.80;;;4.20;;
37715;SDS011;23562;50.540;12.504;2023-04-03T16:05:37;13.40;;;5.47;;
37715;SDS011;23562;50.540;12.504;2023-04-03T16:08:04;9.90;;;3.05;;
37715;SDS011;23562;50.540;12.504;2023-04-03T16:10:30;8.07;;;3.15;;
37715;SDS011;23562;50.540;12.504;2023-04-03T16:12:55;6.10;;;2.67;;
37715;SDS011;23562;50.540;12.504;2023-04-03T16:15:21;5.28;;;2.28;;
37715;SDS011;23562;50.540;12.504;2023-04-03T16:17:47;6.10;;;2.30;;
37715;SDS011;23562;50.540;12.504;2023-04-03T16:20:13;7.70;;;2.50;;
37715;SDS011;23562;50.540;12.504;2023-04-03T16:22:39;5.88;;;2.30;;
37715;SDS011;23562;50.540;12.504;2023-04-03T16:25:05;9.70;;;3.20;;
37715;SDS011;23562;50.540;12.504;2023-04-03T16:27:31;9.93;;;3.00;;
37715;SDS011;23562;50.540;12.504;2023-04-03T16:29:57;6.30;;;2.28;;
37715;SDS011;23562;50.540;12.504;2023-04-03T16:32:23;4.40;;;1.90;;
37715;SDS011;23562;50.540;12.504;2023-04-03T16:34:51;7.65;;;2.40;;
37715;SDS011;23562;50.540;12.504;2023-04-03T16:37:17;11.23;;;3.30;;
37715;SDS011;23562;50.540;12.504;2023-04-03T16:39:42;6.57;;;4.45;;
37715;SDS011;23562;50.540;12.504;2023-04-03T16:42:08;8.35;;;2.92;;